sensor_id;sensor_type;location;lat;lon;timestamp;P1;durP1;ratioP1;P2;durP2;ratioP2
49738;SDS011;53662;50.114;8.626;2022-10-22T00:01:12;8.52;;;3.40;;
49738;SDS011;53662;50.114;8.626;2022-10-22T00:03:38;8.15;;;4.10;;
49738;SDS011;53662;50.114;8.626;2022-10-22T00:06:04;5.70;;;3.88;;
49738;SDS011;53662;50.114;8.626;2022-10-22T00:08:30;6.55;;;3.42;;
49738;SDS011;53662;50.114;8.626;2022-10-22T00:10:56;8.15;;;3.08;;
49738;SDS011;53662;50.114;8.626;2022-10-22T00:13:22;10.20;;;3.58;;
49738;SDS011;53662;50.114;8.626;2022-10-22T00:15:48;10.23;;;4.05;;
49738;SDS011;53662;50.114;8.626;2022-10-22T00:18:14;15.15;;;4.25;;
49738;SDS011;53662;50.114;8.626;2022-10-22T00:20:40;17.90;;;4.63;;
49738;SDS011;53662;50.114;8.626;2022-10-22T00:23:06;11.52;;;4.07;;
49738;SDS011;53662;50.114;8.626;2022-10-22T00:25:33;9.07;;;4.30;;
49738;SDS011;53662;50.114;8.626;2022-10-22T00:27:59;11.38;;;4.03;;
49738;SDS011;53662;50.114;8.626;2022-10-22T00:30:25;10.13;;;4.18;;
49738;SDS011;53662;50.114;8.626;2022-10-22T00:32:51;9.32;;;3.97;;
49738;SDS011;53662;50.114;8.626;2022-10-22T00:35:17;8.98;;;3.22;;
49738;SDS011;53662;50.114;8.626;2022-10-22T00:37:43;9.13;;;3.80;;
49738;SDS011;53662;50.114;8.626;2022-10-22T00:40:09;11.85;;;4.72;;
49738;SDS011;53662;50.114;8.626;2022-10-22T00:42:35;9.80;;;4.85;;
49738;SDS011;53662;50.114;8.626;2022-10-22T00:50:03;10.30;;;4.60;;
49738;SDS011;53662;50.114;8.626;2022-10-22T00:52:29;10.55;;;4.20;;
49738;SDS011;53662;50.114;8.626;2022-10-22T00:54:56;6.32;;;4.82;;
49738;SDS011;53662;50.114;8.626;2022-10-22T00:57:22;10.88;;;4.75;;
49738;SDS011;53662;50.114;8.626;2022-10-22T00:59:48;7.10;;;4.30;;
49738;SDS011;53662;50.114;8.626;2022-10-22T01:02:14;6.70;;;4.10;;
49738;SDS011;53662;50.114;8.626;2022-10-22T01:04:40;16.55;;;5.55;;
49738;SDS011;53662;50.114;8.626;2022-10-22T01:07:06;10.40;;;4.45;;
49738;SDS011;53662;50.114;8.626;2022-10-22T01:09:41;8.50;;;3.83;;
49738;SDS011;53662;50.114;8.626;2022-10-22T01:17:32;16.77;;;4.20;;
49738;SDS011;53662;50.114;8.626;2022-10-22T01:20:07;14.55;;;3.75;;
49738;SDS011;53662;50.114;8.626;2022-10-22T01:22:49;17.25;;;4.07;;
49738;SDS011;53662;50.114;8.626;2022-10-22T01:25:23;8.75;;;3.70;;
49738;SDS011;53662;50.114;8.626;2022-10-22T01:28:09;14.52;;;3.88;;
49738;SDS011;53662;50.114;8.626;2022-10-22T01:30:38;17.10;;;7.85;;
49738;SDS011;53662;50.114;8.626;2022-10-22T01:33:05;10.30;;;3.75;;
49738;SDS011;53662;50.114;8.626;2022-10-22T01:35:34;9.00;;;3.22;;
49738;SDS011;53662;50.114;8.626;2022-10-22T01:38:03;3.70;;;3.05;;
49738;SDS011;53662;50.114;8.626;2022-10-22T01:40:29;5.40;;;3.55;;
49738;SDS011;53662;50.114;8.626;2022-10-22T01:42:57;7.68;;;3.70;;
49738;SDS011;53662;50.114;8.626;2022-10-22T01:45:23;9.18;;;3.35;;
49738;SDS011;53662;50.114;8.626;2022-10-22T01:47:53;7.93;;;3.45;;
49738;SDS011;53662;50.114;8.626;2022-10-22T01:50:27;12.45;;;3.95;;
49738;SDS011;53662;50.114;8.626;2022-10-22T01:53:02;10.32;;;3.42;;
49738;SDS011;53662;50.114;8.626;2022-10-22T02:00:47;4.47;;;3.17;;
49738;SDS011;53662;50.114;8.626;2022-10-22T02:03:20;8.55;;;3.90;;
49738;SDS011;53662;50.114;8.626;2022-10-22T02:05:48;9.20;;;4.05;;
49738;SDS011;53662;50.114;8.626;2022-10-22T02:08:19;7.53;;;3.50;;
49738;SDS011;53662;50.114;8.626;2022-10-22T02:10:46;7.77;;;3.67;;
49738;SDS011;53662;50.114;8.626;2022-10-22T02:13:15;18.92;;;3.67;;
49738;SDS011;53662;50.114;8.626;2022-10-22T02:15:42;7.10;;;2.92;;
49738;SDS011;53662;50.114;8.626;2022-10-22T02:18:09;5.45;;;2.20;;
49738;SDS011;53662;50.114;8.626;2022-10-22T02:20:36;3.75;;;2.00;;
49738;SDS011;53662;50.114;8.626;2022-10-22T02:23:03;3.50;;;2.20;;
49738;SDS011;53662;50.114;8.626;2022-10-22T02:25:30;7.75;;;2.00;;
49738;SDS011;53662;50.114;8.626;2022-10-22T02:30:32;13.80;;;2.30;;
49738;SDS011;53662;50.114;8.626;2022-10-22T02:33:00;2.15;;;1.80;;
49738;SDS011;53662;50.114;8.626;2022-10-22T02:35:27;7.93;;;2.13;;
49738;SDS011;53662;50.114;8.626;2022-10-22T02:37:54;6.93;;;2.00;;
49738;SDS011;53662;50.114;8.626;2022-10-22T02:40:21;4.88;;;2.00;;
49738;SDS011;53662;50.114;8.626;2022-10-22T02:42:47;5.53;;;1.88;;
49738;SDS011;53662;50.114;8.626;2022-10-22T02:45:13;3.72;;;1.98;;
49738;SDS011;53662;50.114;8.626;2022-10-22T02:47:39;3.05;;;1.85;;
49738;SDS011;53662;50.114;8.626;2022-10-22T02:50:05;7.45;;;1.92;;
49738;SDS011;53662;50.114;8.626;2022-10-22T02:52:31;3.83;;;1.83;;
49738;SDS011;53662;50.114;8.626;2022-10-22T02:54:57;7.60;;;1.98;;
49738;SDS011;53662;50.114;8.626;2022-10-22T02:57:23;4.50;;;2.10;;
49738;SDS011;53662;50.114;8.626;2022-10-22T02:59:49;4.15;;;1.70;;
49738;SDS011;53662;50.114;8.626;2022-10-22T03:02:15;2.63;;;1.63;;
49738;SDS011;53662;50.114;8.626;2022-10-22T03:04:41;2.55;;;1.67;;
49738;SDS011;53662;50.114;8.626;2022-10-22T03:07:07;4.93;;;1.65;;
49738;SDS011;53662;50.114;8.626;2022-10-22T03:09:33;5.20;;;1.77;;
49738;SDS011;53662;50.114;8.626;2022-10-22T03:11:59;3.42;;;1.90;;
49738;SDS011;53662;50.114;8.626;2022-10-22T03:14:25;3.83;;;1.52;;
49738;SDS011;53662;50.114;8.626;2022-10-22T03:16:51;4.07;;;1.73;;
49738;SDS011;53662;50.114;8.626;2022-10-22T03:19:17;8.98;;;1.50;;
49738;SDS011;53662;50.114;8.626;2022-10-22T03:21:44;6.80;;;1.90;;
49738;SDS011;53662;50.114;8.626;2022-10-22T03:24:12;2.80;;;1.70;;
49738;SDS011;53662;50.114;8.626;2022-10-22T03:26:39;6.18;;;1.75;;
49738;SDS011;53662;50.114;8.626;2022-10-22T03:29:06;6.88;;;1.90;;
49738;SDS011;53662;50.114;8.626;2022-10-22T03:31:32;7.50;;;1.98;;
49738;SDS011;53662;50.114;8.626;2022-10-22T03:33:58;5.85;;;1.75;;
49738;SDS011;53662;50.114;8.626;2022-10-22T03:36:24;5.75;;;1.77;;
49738;SDS011;53662;50.114;8.626;2022-10-22T03:38:50;7.35;;;1.90;;
49738;SDS011;53662;50.114;8.626;2022-10-22T03:41:16;6.72;;;2.00;;
49738;SDS011;53662;50.114;8.626;2022-10-22T03:43:42;9.88;;;2.05;;
49738;SDS011;53662;50.114;8.626;2022-10-22T03:46:13;6.70;;;1.60;;
49738;SDS011;53662;50.114;8.626;2022-10-22T03:48:39;6.68;;;2.15;;
49738;SDS011;53662;50.114;8.626;2022-10-22T03:51:05;5.60;;;2.10;;
49738;SDS011;53662;50.114;8.626;2022-10-22T03:53:31;8.55;;;1.80;;
49738;SDS011;53662;50.114;8.626;2022-10-22T03:55:57;8.27;;;2.00;;
49738;SDS011;53662;50.114;8.626;2022-10-22T03:58:23;5.07;;;2.13;;
49738;SDS011;53662;50.114;8.626;2022-10-22T04:00:49;7.25;;;1.92;;
49738;SDS011;53662;50.114;8.626;2022-10-22T04:03:15;14.52;;;1.80;;
49738;SDS011;53662;50.114;8.626;2022-10-22T04:05:41;6.90;;;1.70;;
49738;SDS011;53662;50.114;8.626;2022-10-22T04:08:07;5.45;;;2.00;;
49738;SDS011;53662;50.114;8.626;2022-10-22T04:10:33;16.92;;;2.05;;
49738;SDS011;53662;50.114;8.626;2022-10-22T04:12:59;4.60;;;2.03;;
49738;SDS011;53662;50.114;8.626;2022-10-22T04:15:24;4.90;;;1.60;;
49738;SDS011;53662;50.114;8.626;2022-10-22T04:17:52;4.82;;;1.60;;
49738;SDS011;53662;50.114;8.626;2022-10-22T04:20:18;8.20;;;1.40;;
49738;SDS011;53662;50.114;8.626;2022-10-22T04:22:44;7.00;;;1.75;;
49738;SDS011;53662;50.114;8.626;2022-10-22T04:25:10;5.35;;;1.40;;
49738;SDS011;53662;50.114;8.626;2022-10-22T04:27:36;4.38;;;1.27;;
49738;SDS011;53662;50.114;8.626;2022-10-22T04:30:02;2.47;;;1.35;;
49738;SDS011;53662;50.114;8.626;2022-10-22T04:32:29;3.17;;;1.50;;
49738;SDS011;53662;50.114;8.626;2022-10-22T04:34:54;3.78;;;1.63;;
49738;SDS011;53662;50.114;8.626;2022-10-22T04:37:20;6.03;;;1.77;;
49738;SDS011;53662;50.114;8.626;2022-10-22T04:39:46;4.28;;;1.73;;
49738;SDS011;53662;50.114;8.626;2022-10-22T04:42:12;4.00;;;1.35;;
49738;SDS011;53662;50.114;8.626;2022-10-22T04:44:38;1.92;;;1.60;;
49738;SDS011;53662;50.114;8.626;2022-10-22T04:47:04;5.47;;;1.83;;
49738;SDS011;53662;50.114;8.626;2022-10-22T04:49:30;3.65;;;1.20;;
49738;SDS011;53662;50.114;8.626;2022-10-22T04:51:56;2.53;;;1.00;;
49738;SDS011;53662;50.114;8.626;2022-10-22T04:54:22;2.55;;;1.40;;
49738;SDS011;53662;50.114;8.626;2022-10-22T04:56:48;8.60;;;1.30;;
49738;SDS011;53662;50.114;8.626;2022-10-22T04:59:14;6.30;;;1.60;;
49738;SDS011;53662;50.114;8.626;2022-10-22T05:01:41;5.60;;;1.42;;
49738;SDS011;53662;50.114;8.626;2022-10-22T05:04:08;4.05;;;1.50;;
49738;SDS011;53662;50.114;8.626;2022-10-22T05:06:35;7.03;;;1.30;;
49738;SDS011;53662;50.114;8.626;2022-10-22T05:09:06;1.85;;;1.10;;
49738;SDS011;53662;50.114;8.626;2022-10-22T05:11:33;2.03;;;1.13;;
49738;SDS011;53662;50.114;8.626;2022-10-22T05:14:00;1.77;;;1.27;;
49738;SDS011;53662;50.114;8.626;2022-10-22T05:16:27;5.07;;;1.35;;
49738;SDS011;53662;50.114;8.626;2022-10-22T05:18:53;2.67;;;1.40;;
49738;SDS011;53662;50.114;8.626;2022-10-22T05:21:20;1.55;;;1.10;;
49738;SDS011;53662;50.114;8.626;2022-10-22T05:23:46;4.78;;;1.40;;
49738;SDS011;53662;50.114;8.626;2022-10-22T05:26:13;4.78;;;1.40;;
49738;SDS011;53662;50.114;8.626;2022-10-22T05:28:40;5.07;;;1.20;;
49738;SDS011;53662;50.114;8.626;2022-10-22T05:31:07;1.23;;;1.20;;
49738;SDS011;53662;50.114;8.626;2022-10-22T05:33:33;2.47;;;1.30;;
49738;SDS011;53662;50.114;8.626;2022-10-22T05:35:59;3.72;;;1.70;;
49738;SDS011;53662;50.114;8.626;2022-10-22T05:38:25;7.18;;;1.35;;
49738;SDS011;53662;50.114;8.626;2022-10-22T05:40:58;5.97;;;1.52;;
49738;SDS011;53662;50.114;8.626;2022-10-22T05:43:25;1.80;;;1.45;;
49738;SDS011;53662;50.114;8.626;2022-10-22T05:45:51;2.28;;;1.45;;
49738;SDS011;53662;50.114;8.626;2022-10-22T05:48:16;1.42;;;1.33;;
49738;SDS011;53662;50.114;8.626;2022-10-22T05:50:42;3.67;;;1.70;;
49738;SDS011;53662;50.114;8.626;2022-10-22T05:53:10;4.00;;;1.67;;
49738;SDS011;53662;50.114;8.626;2022-10-22T05:55:36;3.50;;;1.33;;
49738;SDS011;53662;50.114;8.626;2022-10-22T05:58:05;7.47;;;1.65;;
49738;SDS011;53662;50.114;8.626;2022-10-22T06:00:31;4.60;;;1.50;;
49738;SDS011;53662;50.114;8.626;2022-10-22T06:02:58;2.13;;;1.25;;
49738;SDS011;53662;50.114;8.626;2022-10-22T06:05:24;2.25;;;1.42;;
49738;SDS011;53662;50.114;8.626;2022-10-22T06:07:50;2.15;;;1.50;;
49738;SDS011;53662;50.114;8.626;2022-10-22T06:10:17;6.53;;;1.42;;
49738;SDS011;53662;50.114;8.626;2022-10-22T06:12:44;4.68;;;1.40;;
49738;SDS011;53662;50.114;8.626;2022-10-22T06:15:11;6.20;;;1.40;;
49738;SDS011;53662;50.114;8.626;2022-10-22T06:17:37;2.72;;;1.60;;
49738;SDS011;53662;50.114;8.626;2022-10-22T06:20:04;4.30;;;1.50;;
49738;SDS011;53662;50.114;8.626;2022-10-22T06:22:30;4.90;;;1.35;;
49738;SDS011;53662;50.114;8.626;2022-10-22T06:24:56;5.13;;;1.20;;
49738;SDS011;53662;50.114;8.626;2022-10-22T06:27:22;5.75;;;1.52;;
49738;SDS011;53662;50.114;8.626;2022-10-22T06:29:48;2.03;;;1.35;;
49738;SDS011;53662;50.114;8.626;2022-10-22T06:32:13;4.60;;;1.17;;
49738;SDS011;53662;50.114;8.626;2022-10-22T06:34:39;4.05;;;1.35;;
49738;SDS011;53662;50.114;8.626;2022-10-22T06:37:05;4.38;;;1.52;;
49738;SDS011;53662;50.114;8.626;2022-10-22T06:39:32;4.07;;;1.20;;
49738;SDS011;53662;50.114;8.626;2022-10-22T06:41:58;1.45;;;1.35;;
49738;SDS011;53662;50.114;8.626;2022-10-22T06:44:24;2.35;;;1.30;;
49738;SDS011;53662;50.114;8.626;2022-10-22T06:46:50;2.70;;;1.65;;
49738;SDS011;53662;50.114;8.626;2022-10-22T06:49:20;5.50;;;1.80;;
49738;SDS011;53662;50.114;8.626;2022-10-22T06:51:52;10.32;;;2.13;;
49738;SDS011;53662;50.114;8.626;2022-10-22T06:54:19;2.28;;;1.40;;
49738;SDS011;53662;50.114;8.626;2022-10-22T06:56:45;5.45;;;1.60;;
49738;SDS011;53662;50.114;8.626;2022-10-22T06:59:11;5.28;;;1.75;;
49738;SDS011;53662;50.114;8.626;2022-10-22T07:01:37;2.08;;;1.35;;
49738;SDS011;53662;50.114;8.626;2022-10-22T07:04:04;3.63;;;1.42;;
49738;SDS011;53662;50.114;8.626;2022-10-22T07:06:30;1.50;;;1.40;;
49738;SDS011;53662;50.114;8.626;2022-10-22T07:08:57;4.32;;;1.48;;
49738;SDS011;53662;50.114;8.626;2022-10-22T07:11:24;6.15;;;2.13;;
49738;SDS011;53662;50.114;8.626;2022-10-22T07:13:56;4.82;;;1.90;;
49738;SDS011;53662;50.114;8.626;2022-10-22T07:16:22;3.53;;;1.73;;
49738;SDS011;53662;50.114;8.626;2022-10-22T07:18:51;6.80;;;1.90;;
49738;SDS011;53662;50.114;8.626;2022-10-22T07:21:17;4.25;;;2.05;;
49738;SDS011;53662;50.114;8.626;2022-10-22T07:23:44;3.28;;;1.70;;
49738;SDS011;53662;50.114;8.626;2022-10-22T07:26:10;2.03;;;1.45;;
49738;SDS011;53662;50.114;8.626;2022-10-22T07:28:37;5.68;;;1.67;;
49738;SDS011;53662;50.114;8.626;2022-10-22T07:31:07;4.20;;;1.80;;
49738;SDS011;53662;50.114;8.626;2022-10-22T07:33:33;1.27;;;1.13;;
49738;SDS011;53662;50.114;8.626;2022-10-22T07:36:00;1.27;;;1.15;;
49738;SDS011;53662;50.114;8.626;2022-10-22T07:38:27;0.90;;;0.90;;
49738;SDS011;53662;50.114;8.626;2022-10-22T07:40:56;4.57;;;1.60;;
49738;SDS011;53662;50.114;8.626;2022-10-22T07:43:22;3.08;;;1.35;;
49738;SDS011;53662;50.114;8.626;2022-10-22T07:45:48;7.32;;;1.65;;
49738;SDS011;53662;50.114;8.626;2022-10-22T07:48:14;3.75;;;1.60;;
49738;SDS011;53662;50.114;8.626;2022-10-22T07:50:40;4.40;;;1.52;;
49738;SDS011;53662;50.114;8.626;2022-10-22T07:53:06;4.93;;;1.83;;
49738;SDS011;53662;50.114;8.626;2022-10-22T07:55:32;1.55;;;1.45;;
49738;SDS011;53662;50.114;8.626;2022-10-22T07:58:01;5.30;;;1.02;;
49738;SDS011;53662;50.114;8.626;2022-10-22T08:00:27;2.05;;;0.90;;
49738;SDS011;53662;50.114;8.626;2022-10-22T08:02:53;3.08;;;1.10;;
49738;SDS011;53662;50.114;8.626;2022-10-22T08:05:19;1.77;;;0.90;;
49738;SDS011;53662;50.114;8.626;2022-10-22T08:07:45;7.03;;;1.35;;
49738;SDS011;53662;50.114;8.626;2022-10-22T08:10:14;3.47;;;0.73;;
49738;SDS011;53662;50.114;8.626;2022-10-22T08:12:42;5.13;;;0.82;;
49738;SDS011;53662;50.114;8.626;2022-10-22T08:15:08;1.33;;;0.80;;
49738;SDS011;53662;50.114;8.626;2022-10-22T08:17:34;3.00;;;1.02;;
49738;SDS011;53662;50.114;8.626;2022-10-22T08:20:00;6.80;;;1.05;;
49738;SDS011;53662;50.114;8.626;2022-10-22T08:22:26;2.20;;;1.00;;
49738;SDS011;53662;50.114;8.626;2022-10-22T08:24:54;7.03;;;1.17;;
49738;SDS011;53662;50.114;8.626;2022-10-22T08:27:20;3.85;;;1.23;;
49738;SDS011;53662;50.114;8.626;2022-10-22T08:29:46;3.83;;;1.05;;
49738;SDS011;53662;50.114;8.626;2022-10-22T08:32:14;2.45;;;0.70;;
49738;SDS011;53662;50.114;8.626;2022-10-22T08:34:40;2.78;;;0.95;;
49738;SDS011;53662;50.114;8.626;2022-10-22T08:37:06;6.15;;;0.93;;
49738;SDS011;53662;50.114;8.626;2022-10-22T08:39:32;1.65;;;0.80;;
49738;SDS011;53662;50.114;8.626;2022-10-22T08:47:38;1.27;;;0.60;;
49738;SDS011;53662;50.114;8.626;2022-10-22T08:50:14;0.80;;;0.80;;
49738;SDS011;53662;50.114;8.626;2022-10-22T08:52:42;2.65;;;0.77;;
49738;SDS011;53662;50.114;8.626;2022-10-22T08:55:12;6.65;;;0.98;;
49738;SDS011;53662;50.114;8.626;2022-10-22T08:57:45;4.28;;;1.00;;
49738;SDS011;53662;50.114;8.626;2022-10-22T09:00:17;0.73;;;0.60;;
49738;SDS011;53662;50.114;8.626;2022-10-22T09:05:20;1.52;;;0.60;;
49738;SDS011;53662;50.114;8.626;2022-10-22T09:07:47;2.38;;;0.65;;
49738;SDS011;53662;50.114;8.626;2022-10-22T09:10:15;0.60;;;0.60;;
49738;SDS011;53662;50.114;8.626;2022-10-22T09:12:41;3.60;;;0.70;;
49738;SDS011;53662;50.114;8.626;2022-10-22T09:15:17;4.85;;;1.27;;
49738;SDS011;53662;50.114;8.626;2022-10-22T09:20:48;2.38;;;0.80;;
49738;SDS011;53662;50.114;8.626;2022-10-22T09:23:20;2.08;;;0.60;;
49738;SDS011;53662;50.114;8.626;2022-10-22T09:25:48;1.33;;;0.60;;
49738;SDS011;53662;50.114;8.626;2022-10-22T09:28:15;2.95;;;0.85;;
49738;SDS011;53662;50.114;8.626;2022-10-22T09:30:41;4.47;;;0.55;;
49738;SDS011;53662;50.114;8.626;2022-10-22T09:35:44;1.23;;;1.13;;
49738;SDS011;53662;50.114;8.626;2022-10-22T09:38:10;5.85;;;1.00;;
49738;SDS011;53662;50.114;8.626;2022-10-22T09:40:42;3.58;;;0.77;;
49738;SDS011;53662;50.114;8.626;2022-10-22T09:43:10;1.77;;;0.77;;
49738;SDS011;53662;50.114;8.626;2022-10-22T09:45:36;0.95;;;0.82;;
49738;SDS011;53662;50.114;8.626;2022-10-22T09:53:16;3.67;;;0.60;;
49738;SDS011;53662;50.114;8.626;2022-10-22T09:55:43;3.22;;;0.50;;
49738;SDS011;53662;50.114;8.626;2022-10-22T09:58:12;5.50;;;0.70;;
49738;SDS011;53662;50.114;8.626;2022-10-22T10:00:39;4.20;;;0.60;;
49738;SDS011;53662;50.114;8.626;2022-10-22T10:03:11;4.35;;;0.88;;
49738;SDS011;53662;50.114;8.626;2022-10-22T10:05:40;2.33;;;0.50;;
49738;SDS011;53662;50.114;8.626;2022-10-22T10:08:11;1.42;;;0.80;;
49738;SDS011;53662;50.114;8.626;2022-10-22T10:10:42;3.00;;;0.60;;
49738;SDS011;53662;50.114;8.626;2022-10-22T10:15:37;10.77;;;0.82;;
49738;SDS011;53662;50.114;8.626;2022-10-22T10:21:08;4.22;;;0.70;;
49738;SDS011;53662;50.114;8.626;2022-10-22T10:31:16;1.88;;;0.70;;
49738;SDS011;53662;50.114;8.626;2022-10-22T10:36:18;1.40;;;0.68;;
49738;SDS011;53662;50.114;8.626;2022-10-22T10:38:58;5.18;;;0.60;;
49738;SDS011;53662;50.114;8.626;2022-10-22T10:41:30;2.33;;;0.60;;
49738;SDS011;53662;50.114;8.626;2022-10-22T10:44:04;3.47;;;0.50;;
49738;SDS011;53662;50.114;8.626;2022-10-22T10:49:09;4.47;;;0.60;;
49738;SDS011;53662;50.114;8.626;2022-10-22T10:51:37;2.55;;;0.52;;
49738;SDS011;53662;50.114;8.626;2022-10-22T10:59:13;4.57;;;0.73;;
49738;SDS011;53662;50.114;8.626;2022-10-22T11:06:36;3.08;;;0.88;;
49738;SDS011;53662;50.114;8.626;2022-10-22T11:09:04;3.17;;;0.70;;
49738;SDS011;53662;50.114;8.626;2022-10-22T11:11:34;1.98;;;0.65;;
49738;SDS011;53662;50.114;8.626;2022-10-22T11:14:18;3.00;;;0.75;;
49738;SDS011;53662;50.114;8.626;2022-10-22T11:16:48;2.53;;;0.82;;
49738;SDS011;53662;50.114;8.626;2022-10-22T11:19:25;3.58;;;0.80;;
49738;SDS011;53662;50.114;8.626;2022-10-22T11:26:56;1.67;;;0.80;;
49738;SDS011;53662;50.114;8.626;2022-10-22T11:29:24;2.70;;;1.13;;
49738;SDS011;53662;50.114;8.626;2022-10-22T11:31:51;4.22;;;0.57;;
49738;SDS011;53662;50.114;8.626;2022-10-22T11:34:20;1.83;;;1.02;;
49738;SDS011;53662;50.114;8.626;2022-10-22T11:36:47;4.18;;;0.93;;
49738;SDS011;53662;50.114;8.626;2022-10-22T11:39:29;5.35;;;0.88;;
49738;SDS011;53662;50.114;8.626;2022-10-22T11:41:57;3.90;;;0.85;;
49738;SDS011;53662;50.114;8.626;2022-10-22T11:44:23;8.93;;;1.00;;
49738;SDS011;53662;50.114;8.626;2022-10-22T11:46:54;5.00;;;0.98;;
49738;SDS011;53662;50.114;8.626;2022-10-22T11:49:25;1.05;;;0.70;;
49738;SDS011;53662;50.114;8.626;2022-10-22T11:51:51;7.38;;;0.73;;
49738;SDS011;53662;50.114;8.626;2022-10-22T11:54:36;2.90;;;0.77;;
49738;SDS011;53662;50.114;8.626;2022-10-22T12:02:23;3.70;;;0.80;;
49738;SDS011;53662;50.114;8.626;2022-10-22T12:04:49;1.67;;;0.75;;
49738;SDS011;53662;50.114;8.626;2022-10-22T12:09:53;4.85;;;1.08;;
49738;SDS011;53662;50.114;8.626;2022-10-22T12:12:22;2.88;;;0.88;;
49738;SDS011;53662;50.114;8.626;2022-10-22T12:14:57;1.20;;;0.90;;
49738;SDS011;53662;50.114;8.626;2022-10-22T12:17:23;1.50;;;0.82;;
49738;SDS011;53662;50.114;8.626;2022-10-22T12:20:12;4.20;;;0.70;;
49738;SDS011;53662;50.114;8.626;2022-10-22T12:22:38;6.68;;;1.00;;
49738;SDS011;53662;50.114;8.626;2022-10-22T12:25:09;5.35;;;1.13;;
49738;SDS011;53662;50.114;8.626;2022-10-22T12:27:38;2.85;;;0.90;;
49738;SDS011;53662;50.114;8.626;2022-10-22T12:30:18;3.67;;;1.23;;
49738;SDS011;53662;50.114;8.626;2022-10-22T12:32:46;8.57;;;1.67;;
49738;SDS011;53662;50.114;8.626;2022-10-22T12:35:19;7.70;;;1.02;;
49738;SDS011;53662;50.114;8.626;2022-10-22T12:37:49;2.83;;;1.00;;
49738;SDS011;53662;50.114;8.626;2022-10-22T12:40:17;2.90;;;1.00;;
49738;SDS011;53662;50.114;8.626;2022-10-22T12:42:47;6.30;;;1.27;;
49738;SDS011;53662;50.114;8.626;2022-10-22T12:45:13;6.65;;;1.40;;
49738;SDS011;53662;50.114;8.626;2022-10-22T12:47:43;3.97;;;1.00;;
49738;SDS011;53662;50.114;8.626;2022-10-22T12:50:14;8.82;;;2.53;;
49738;SDS011;53662;50.114;8.626;2022-10-22T12:52:41;2.53;;;1.13;;
49738;SDS011;53662;50.114;8.626;2022-10-22T12:55:07;3.47;;;0.90;;
49738;SDS011;53662;50.114;8.626;2022-10-22T12:57:34;1.50;;;0.98;;
49738;SDS011;53662;50.114;8.626;2022-10-22T13:00:00;9.88;;;1.20;;
49738;SDS011;53662;50.114;8.626;2022-10-22T13:02:26;8.70;;;1.10;;
49738;SDS011;53662;50.114;8.626;2022-10-22T13:07:38;2.85;;;1.00;;
49738;SDS011;53662;50.114;8.626;2022-10-22T13:12:42;4.95;;;1.20;;
49738;SDS011;53662;50.114;8.626;2022-10-22T13:18:17;0.90;;;0.77;;
49738;SDS011;53662;50.114;8.626;2022-10-22T13:20:57;6.20;;;1.08;;
49738;SDS011;53662;50.114;8.626;2022-10-22T13:23:26;4.97;;;0.90;;
49738;SDS011;53662;50.114;8.626;2022-10-22T13:25:56;2.17;;;0.73;;
49738;SDS011;53662;50.114;8.626;2022-10-22T13:28:23;3.88;;;1.00;;
49738;SDS011;53662;50.114;8.626;2022-10-22T13:30:51;6.38;;;1.58;;
49738;SDS011;53662;50.114;8.626;2022-10-22T13:33:22;5.72;;;1.67;;
49738;SDS011;53662;50.114;8.626;2022-10-22T13:35:50;5.50;;;1.95;;
49738;SDS011;53662;50.114;8.626;2022-10-22T13:38:20;4.20;;;1.50;;
49738;SDS011;53662;50.114;8.626;2022-10-22T13:40:47;3.08;;;1.15;;
49738;SDS011;53662;50.114;8.626;2022-10-22T13:43:13;3.88;;;1.17;;
49738;SDS011;53662;50.114;8.626;2022-10-22T13:45:39;2.53;;;1.08;;
49738;SDS011;53662;50.114;8.626;2022-10-22T13:48:05;6.90;;;1.75;;
49738;SDS011;53662;50.114;8.626;2022-10-22T13:50:34;3.90;;;1.13;;
49738;SDS011;53662;50.114;8.626;2022-10-22T13:53:00;2.25;;;1.30;;
49738;SDS011;53662;50.114;8.626;2022-10-22T13:55:27;6.63;;;1.17;;
49738;SDS011;53662;50.114;8.626;2022-10-22T13:58:02;4.70;;;1.30;;
49738;SDS011;53662;50.114;8.626;2022-10-22T14:00:28;3.80;;;1.30;;
49738;SDS011;53662;50.114;8.626;2022-10-22T14:02:55;1.85;;;0.93;;
49738;SDS011;53662;50.114;8.626;2022-10-22T14:05:22;5.15;;;1.42;;
49738;SDS011;53662;50.114;8.626;2022-10-22T14:07:48;3.38;;;1.23;;
49738;SDS011;53662;50.114;8.626;2022-10-22T14:12:40;8.05;;;5.57;;
49738;SDS011;53662;50.114;8.626;2022-10-22T14:15:07;6.22;;;1.40;;
49738;SDS011;53662;50.114;8.626;2022-10-22T14:17:36;7.68;;;1.48;;
49738;SDS011;53662;50.114;8.626;2022-10-22T14:20:02;7.25;;;1.70;;
49738;SDS011;53662;50.114;8.626;2022-10-22T14:22:28;4.35;;;1.25;;
49738;SDS011;53662;50.114;8.626;2022-10-22T14:24:55;4.88;;;1.13;;
49738;SDS011;53662;50.114;8.626;2022-10-22T14:27:21;11.43;;;1.70;;
49738;SDS011;53662;50.114;8.626;2022-10-22T14:29:47;11.88;;;1.67;;
49738;SDS011;53662;50.114;8.626;2022-10-22T14:32:14;6.65;;;1.42;;
49738;SDS011;53662;50.114;8.626;2022-10-22T14:34:40;9.30;;;1.30;;
49738;SDS011;53662;50.114;8.626;2022-10-22T14:37:16;4.55;;;1.45;;
49738;SDS011;53662;50.114;8.626;2022-10-22T14:39:42;5.53;;;1.40;;
49738;SDS011;53662;50.114;8.626;2022-10-22T14:42:10;1.75;;;1.20;;
49738;SDS011;53662;50.114;8.626;2022-10-22T14:44:40;10.95;;;1.55;;
49738;SDS011;53662;50.114;8.626;2022-10-22T14:47:06;5.85;;;1.50;;
49738;SDS011;53662;50.114;8.626;2022-10-22T14:49:32;3.05;;;1.73;;
49738;SDS011;53662;50.114;8.626;2022-10-22T14:51:58;6.18;;;1.77;;
49738;SDS011;53662;50.114;8.626;2022-10-22T14:54:24;6.13;;;2.08;;
49738;SDS011;53662;50.114;8.626;2022-10-22T14:56:50;7.78;;;1.92;;
49738;SDS011;53662;50.114;8.626;2022-10-22T14:59:16;3.65;;;1.45;;
49738;SDS011;53662;50.114;8.626;2022-10-22T15:01:42;4.60;;;1.27;;
49738;SDS011;53662;50.114;8.626;2022-10-22T15:04:08;3.28;;;1.48;;
49738;SDS011;53662;50.114;8.626;2022-10-22T15:06:34;7.65;;;2.03;;
49738;SDS011;53662;50.114;8.626;2022-10-22T15:09:00;4.22;;;1.48;;
49738;SDS011;53662;50.114;8.626;2022-10-22T15:11:26;5.20;;;1.58;;
49738;SDS011;53662;50.114;8.626;2022-10-22T15:13:52;8.13;;;1.42;;
49738;SDS011;53662;50.114;8.626;2022-10-22T15:16:18;9.00;;;1.60;;
49738;SDS011;53662;50.114;8.626;2022-10-22T15:18:44;6.13;;;1.77;;
49738;SDS011;53662;50.114;8.626;2022-10-22T15:21:14;5.40;;;2.00;;
49738;SDS011;53662;50.114;8.626;2022-10-22T15:23:40;6.72;;;2.13;;
49738;SDS011;53662;50.114;8.626;2022-10-22T15:26:06;4.32;;;2.00;;
49738;SDS011;53662;50.114;8.626;2022-10-22T15:28:32;6.82;;;2.22;;
49738;SDS011;53662;50.114;8.626;2022-10-22T15:30:58;10.00;;;1.95;;
49738;SDS011;53662;50.114;8.626;2022-10-22T15:33:25;3.42;;;1.60;;
49738;SDS011;53662;50.114;8.626;2022-10-22T15:35:51;5.32;;;1.95;;
49738;SDS011;53662;50.114;8.626;2022-10-22T15:38:17;16.40;;;2.15;;
49738;SDS011;53662;50.114;8.626;2022-10-22T15:40:46;10.00;;;1.55;;
49738;SDS011;53662;50.114;8.626;2022-10-22T15:43:12;7.10;;;1.80;;
49738;SDS011;53662;50.114;8.626;2022-10-22T15:45:38;9.48;;;1.55;;
49738;SDS011;53662;50.114;8.626;2022-10-22T15:48:04;5.97;;;1.85;;
49738;SDS011;53662;50.114;8.626;2022-10-22T15:50:30;9.35;;;1.70;;
49738;SDS011;53662;50.114;8.626;2022-10-22T15:52:56;5.85;;;2.10;;
49738;SDS011;53662;50.114;8.626;2022-10-22T15:55:22;6.20;;;2.13;;
49738;SDS011;53662;50.114;8.626;2022-10-22T15:57:48;4.38;;;1.80;;
49738;SDS011;53662;50.114;8.626;2022-10-22T16:00:19;6.32;;;2.03;;
49738;SDS011;53662;50.114;8.626;2022-10-22T16:02:45;6.38;;;1.88;;
49738;SDS011;53662;50.114;8.626;2022-10-22T16:05:11;7.97;;;1.75;;
49738;SDS011;53662;50.114;8.626;2022-10-22T16:07:37;13.15;;;2.25;;
49738;SDS011;53662;50.114;8.626;2022-10-22T16:10:03;9.70;;;2.63;;
49738;SDS011;53662;50.114;8.626;2022-10-22T16:12:31;9.07;;;2.70;;
49738;SDS011;53662;50.114;8.626;2022-10-22T16:14:59;4.38;;;2.15;;
49738;SDS011;53662;50.114;8.626;2022-10-22T16:17:25;14.52;;;2.53;;